createdAt,value
2018-09-01T00:00:20.258Z,23.42
2018-09-01T00:05:24.055Z,23.40
2018-09-01T00:10:27.612Z,23.37
2018-09-01T00:15:31.205Z,23.36
2018-09-01T00:20:34.852Z,23.31
2018-09-01T00:25:38.446Z,23.28
2018-09-01T00:30:42.052Z,23.25
2018-09-01T00:35:45.674Z,23.19
2018-09-01T00:40:49.317Z,23.16
2018-09-01T00:45:52.948Z,23.12
2018-09-01T00:50:56.579Z,23.08
2018-09-01T00:56:00.202Z,23.04
2018-09-01T01:01:03.825Z,23.02
2018-09-01T01:06:07.460Z,22.97
2018-09-01T01:11:11.171Z,22.94
2018-09-01T01:16:14.989Z,22.92
2018-09-01T01:21:18.830Z,22.88
2018-09-01T01:26:22.485Z,22.78
2018-09-01T01:31:26.223Z,22.82
2018-09-01T01:36:29.838Z,22.78
2018-09-01T01:41:33.450Z,22.76
2018-09-01T01:46:37.110Z,22.73
2018-09-01T01:51:40.804Z,22.69
2018-09-01T01:56:44.498Z,22.67
2018-09-01T02:01:48.131Z,22.64
2018-09-01T02:06:52.701Z,22.62
2018-09-01T02:11:56.314Z,22.60
2018-09-01T02:16:59.899Z,22.58
2018-09-01T02:22:03.596Z,22.55
2018-09-01T02:27:07.255Z,22.52
2018-09-01T02:32:10.907Z,22.49
2018-09-01T02:37:14.714Z,22.48
2018-09-01T02:42:18.373Z,22.44
2018-09-01T02:47:21.966Z,22.43
2018-09-01T02:52:25.660Z,22.41
2018-09-01T02:57:29.284Z,22.39
2018-09-01T03:02:38.077Z,22.37
2018-09-01T03:07:41.698Z,22.35
2018-09-01T03:12:45.291Z,22.32
2018-09-01T03:17:48.956Z,22.30
2018-09-01T03:22:52.616Z,22.28
2018-09-01T03:27:56.953Z,22.26
2018-09-01T03:33:00.622Z,22.25
2018-09-01T03:38:04.255Z,22.22
2018-09-01T03:43:07.907Z,22.21
2018-09-01T03:48:11.562Z,22.18
2018-09-01T03:53:15.270Z,22.18
2018-09-01T03:58:18.865Z,22.15
2018-09-01T04:03:22.517Z,22.15
2018-09-01T04:08:26.114Z,22.14
2018-09-01T04:13:29.720Z,22.13
2018-09-01T04:18:33.405Z,22.11
2018-09-01T04:23:37.009Z,22.11
2018-09-01T04:28:40.590Z,22.11
2018-09-01T04:33:44.195Z,22.09
2018-09-01T04:38:47.811Z,22.10
2018-09-01T04:43:51.434Z,22.08
2018-09-01T04:48:55.086Z,22.08
2018-09-01T04:53:58.698Z,22.07
2018-09-01T04:59:02.407Z,22.06
2018-09-01T05:04:05.995Z,22.03
2018-09-01T05:09:09.706Z,22.06
2018-09-01T05:14:13.360Z,22.05
2018-09-01T05:19:16.982Z,22.04
2018-09-01T05:24:20.596Z,22.04
2018-09-01T05:29:24.228Z,22.05
2018-09-01T05:34:27.793Z,22.05
2018-09-01T05:39:31.395Z,22.05
2018-09-01T05:44:34.983Z,22.06
2018-09-01T05:49:38.610Z,22.07
2018-09-01T05:54:42.212Z,22.09
2018-09-01T05:59:45.831Z,22.07
2018-09-01T06:04:49.433Z,22.09
2018-09-01T06:09:53.004Z,22.11
2018-09-01T06:19:59.197Z,22.15
2018-09-01T06:25:02.892Z,22.18
2018-09-01T06:30:08.260Z,22.21
2018-09-01T06:35:11.865Z,22.22
2018-09-01T06:40:15.537Z,22.22
2018-09-01T06:45:19.135Z,22.34
2018-09-01T06:50:22.763Z,22.33
2018-09-01T06:55:26.368Z,22.35
2018-09-01T07:00:30.009Z,22.36
2018-09-01T07:05:33.585Z,22.47
2018-09-01T07:10:37.198Z,22.52
2018-09-01T07:15:40.787Z,22.59
2018-09-01T07:20:44.330Z,22.57
2018-09-01T07:25:47.963Z,22.61
2018-09-01T07:30:51.737Z,22.62
2018-09-01T07:35:55.239Z,22.62
2018-09-01T07:40:58.872Z,22.63
2018-09-01T07:46:02.502Z,22.68
2018-09-01T07:51:06.211Z,22.71
2018-09-01T07:56:09.921Z,22.74
2018-09-01T08:01:13.484Z,22.77
2018-09-01T08:06:17.084Z,22.77
2018-09-01T08:11:20.671Z,22.79
2018-09-01T08:16:24.281Z,22.78
2018-09-01T08:21:27.929Z,22.78
2018-09-01T08:26:31.578Z,22.79
2018-09-01T08:31:35.063Z,22.27
2018-09-01T08:36:38.635Z,21.42
2018-09-01T08:41:42.288Z,21.08
2018-09-01T08:46:45.961Z,21.36
2018-09-01T08:51:49.583Z,21.05
2018-09-01T08:56:53.598Z,20.24
2018-09-01T09:01:57.270Z,20.31
2018-09-01T09:07:00.849Z,21.28
2018-09-01T09:12:04.487Z,21.33
2018-09-01T09:17:08.158Z,21.87
2018-09-01T09:22:11.777Z,21.06
2018-09-01T09:27:15.351Z,21.75
2018-09-01T09:32:18.918Z,21.42
2018-09-01T09:37:22.477Z,21.70
2018-09-01T09:42:26.085Z,20.96
2018-09-01T09:47:29.787Z,21.85
2018-09-01T09:52:33.326Z,22.41
2018-09-01T09:57:36.872Z,21.02
2018-09-01T10:02:40.462Z,21.21
2018-09-01T10:07:44.001Z,21.77
2018-09-01T10:12:47.605Z,22.39
2018-09-01T10:17:51.270Z,22.52
2018-09-01T10:22:54.826Z,22.63
2018-09-01T10:28:00.273Z,22.28
2018-09-01T10:33:03.941Z,22.07
2018-09-01T10:38:07.573Z,22.62
2018-09-01T10:43:11.258Z,22.66
2018-09-01T10:48:14.846Z,22.69
2018-09-01T10:53:18.461Z,22.53
2018-09-01T10:58:22.282Z,22.78
2018-09-01T11:03:25.950Z,22.82
2018-09-01T11:08:29.598Z,22.53
2018-09-01T11:13:33.170Z,22.49
2018-09-01T11:18:36.718Z,22.38
2018-09-01T11:23:40.353Z,22.69
2018-09-01T11:28:44.486Z,22.80
2018-09-01T11:33:48.111Z,22.80
2018-09-01T11:38:51.764Z,22.85
2018-09-01T11:43:55.765Z,22.92
2018-09-01T11:48:59.341Z,22.85
2018-09-01T11:54:03.091Z,22.88
2018-09-01T11:59:07.069Z,23.01
2018-09-01T12:04:11.037Z,22.89
2018-09-01T12:09:14.748Z,22.63
2018-09-01T12:14:18.505Z,22.90
2018-09-01T12:19:22.419Z,23.04
2018-09-01T12:24:26.020Z,23.06
2018-09-01T12:29:29.615Z,23.07
2018-09-01T12:34:33.274Z,23.07
2018-09-01T12:39:36.939Z,23.10
2018-09-01T12:44:40.586Z,23.09
2018-09-01T12:49:44.214Z,23.05
2018-09-01T12:54:47.860Z,22.95
2018-09-01T12:59:51.513Z,23.06
2018-09-01T13:04:55.152Z,23.11
2018-09-01T13:09:58.769Z,23.06
2018-09-01T13:15:02.489Z,23.13
2018-09-01T13:20:06.082Z,23.29
2018-09-01T13:25:09.737Z,23.51
2018-09-01T13:30:13.537Z,23.63
2018-09-01T13:35:17.124Z,23.61
2018-09-01T13:40:20.773Z,23.62
2018-09-01T13:45:24.429Z,23.65
2018-09-01T13:50:28.069Z,23.69
2018-09-01T13:55:31.652Z,23.69
2018-09-01T14:00:35.246Z,23.72
2018-09-01T14:05:38.877Z,23.74
2018-09-01T14:10:42.461Z,23.74
2018-09-01T14:15:46.078Z,23.72
2018-09-01T14:20:49.646Z,23.75
2018-09-01T14:25:53.351Z,23.76
2018-09-01T14:30:56.983Z,23.75
2018-09-01T14:36:04.074Z,23.77
2018-09-01T14:41:04.638Z,23.77
2018-09-01T14:46:08.315Z,23.80
2018-09-01T14:51:12.164Z,23.79
2018-09-01T14:56:15.766Z,23.82
2018-09-01T15:01:19.424Z,23.84
2018-09-01T15:06:23.104Z,23.84
2018-09-01T15:11:33.039Z,23.85
2018-09-01T15:16:36.672Z,23.85
2018-09-01T15:21:40.231Z,23.85
2018-09-01T15:26:43.817Z,23.83
2018-09-01T15:31:47.440Z,23.78
2018-09-01T15:36:51.065Z,23.74
2018-09-01T15:41:54.725Z,23.72
2018-09-01T15:46:58.427Z,23.69
2018-09-01T15:52:01.980Z,23.65
2018-09-01T15:57:06.084Z,23.60
2018-09-01T16:02:09.719Z,23.55
2018-09-01T16:07:13.420Z,23.50
2018-09-01T16:12:17.084Z,23.43
2018-09-01T16:17:20.696Z,23.37
2018-09-01T16:22:24.345Z,23.31
2018-09-01T16:27:27.969Z,23.22
2018-09-01T16:32:31.585Z,23.20
2018-09-01T16:37:35.228Z,23.18
2018-09-01T16:42:38.821Z,23.13
2018-09-01T16:47:42.489Z,23.10
2018-09-01T16:52:46.146Z,23.06
2018-09-01T16:57:49.835Z,23.05
2018-09-01T17:02:56.931Z,23.06
2018-09-01T17:08:00.893Z,23.04
2018-09-01T17:13:04.730Z,23.09
2018-09-01T17:18:08.608Z,23.17
2018-09-01T17:23:12.391Z,23.25
2018-09-01T17:28:16.078Z,23.30
2018-09-01T17:33:20.257Z,23.35
2018-09-01T17:38:23.865Z,23.43
2018-09-01T17:43:27.567Z,23.45
2018-09-01T17:48:31.161Z,23.52
2018-09-01T17:53:34.841Z,23.54
2018-09-01T17:58:38.465Z,23.59
2018-09-01T18:03:42.057Z,23.65
2018-09-01T18:08:45.649Z,23.63
2018-09-01T18:13:49.963Z,23.69
2018-09-01T18:18:53.667Z,23.69
2018-09-01T18:23:57.238Z,23.71
2018-09-01T18:29:00.825Z,23.73
2018-09-01T18:34:04.465Z,23.76
2018-09-01T18:39:09.618Z,23.80
2018-09-01T18:44:13.831Z,23.80
2018-09-01T18:49:17.844Z,23.83
2018-09-01T18:54:21.450Z,23.87
2018-09-01T18:59:25.156Z,23.87
2018-09-01T19:04:28.833Z,23.89
2018-09-01T19:09:32.651Z,23.91
2018-09-01T19:14:37.519Z,23.92
2018-09-01T19:19:41.193Z,23.94
2018-09-01T19:24:44.885Z,23.97
2018-09-01T19:29:48.658Z,23.96
2018-09-01T19:34:52.381Z,23.98
2018-09-01T19:39:56.051Z,23.97
2018-09-01T19:45:00.001Z,23.98
2018-09-01T19:50:05.844Z,23.99
2018-09-01T19:55:09.784Z,23.99
2018-09-01T20:00:14.536Z,24.01
2018-09-01T20:05:18.252Z,24.01
2018-09-01T20:10:21.933Z,24.00
2018-09-01T20:15:25.655Z,24.02
2018-09-01T20:20:29.429Z,24.08
2018-09-01T20:25:33.142Z,24.03
2018-09-01T20:30:36.714Z,24.04
2018-09-01T20:35:45.487Z,24.03
2018-09-01T20:40:50.100Z,24.04
2018-09-01T20:45:53.739Z,24.05
2018-09-01T20:50:57.397Z,24.04
2018-09-01T20:56:01.007Z,24.04
2018-09-01T21:01:04.832Z,24.06
2018-09-01T21:06:08.904Z,24.06
2018-09-01T21:11:12.869Z,24.08
2018-09-01T21:16:17.331Z,24.08
2018-09-01T21:21:21.013Z,24.05
2018-09-01T21:26:24.769Z,24.04
2018-09-01T21:31:28.437Z,24.04
2018-09-01T21:36:32.044Z,24.04
2018-09-01T21:41:35.717Z,24.05
2018-09-01T21:46:39.432Z,24.05
2018-09-01T21:51:43.124Z,24.05
2018-09-01T21:56:46.856Z,24.06
2018-09-01T22:01:55.797Z,24.05
2018-09-01T22:06:59.411Z,24.06
2018-09-01T22:12:03.022Z,24.04
2018-09-01T22:17:06.667Z,24.05
2018-09-01T22:22:10.249Z,24.04
2018-09-01T22:27:13.805Z,24.04
2018-09-01T22:32:17.475Z,24.07
2018-09-01T22:37:21.039Z,24.05
2018-09-01T22:42:24.802Z,24.05
2018-09-01T22:47:30.295Z,24.05
2018-09-01T22:52:33.944Z,24.06
2018-09-01T22:57:37.613Z,24.05
2018-09-01T23:02:41.155Z,24.05
2018-09-01T23:07:44.797Z,24.00
2018-09-01T23:12:48.378Z,24.05
2018-09-01T23:17:51.992Z,24.00
2018-09-01T23:22:55.648Z,23.99
2018-09-01T23:27:59.308Z,24.17
2018-09-01T23:33:02.960Z,24.18
2018-09-01T23:38:06.684Z,24.18
2018-09-01T23:43:10.335Z,24.18
2018-09-01T23:48:13.977Z,24.20
2018-09-01T23:53:17.631Z,24.21
2018-09-01T23:58:21.217Z,24.23
